sensor_id;sensor_type;location;lat;lon;timestamp;pressure;altitude;pressure_sealevel;temperature;humidity
16431;BME280;8325;49.284;7.238;2023-04-30T04:03:02;99092.88;;;9.72;100.00
16431;BME280;8325;49.284;7.238;2023-04-30T04:07:15;99096.09;;;9.66;100.00
16431;BME280;8325;49.284;7.238;2023-04-30T04:11:27;99092.22;;;9.70;100.00
16431;BME280;8325;49.284;7.238;2023-04-30T04:15:40;99099.38;;;9.68;100.00
16431;BME280;8325;49.284;7.238;2023-04-30T04:19:51;99093.53;;;9.74;100.00
16431;BME280;8325;49.284;7.238;2023-04-30T04:24:04;99099.19;;;9.61;100.00
16431;BME280;8325;49.284;7.238;2023-04-30T04:28:18;99093.34;;;9.67;100.00
16431;BME280;8325;49.284;7.238;2023-04-30T04:32:30;99102.19;;;9.75;100.00
16431;BME280;8325;49.284;7.238;2023-04-30T04:36:43;99103.41;;;9.62;100.00
16431;BME280;8325;49.284;7.238;2023-04-30T04:40:54;99107.50;;;9.65;100.00
16431;BME280;8325;49.284;7.238;2023-04-30T04:45:07;99108.31;;;9.65;100.00
16431;BME280;8325;49.284;7.238;2023-04-30T04:49:20;99116.34;;;9.72;100.00
16431;BME280;8325;49.284;7.238;2023-04-30T04:53:32;99112.16;;;9.79;100.00
16431;BME280;8325;49.284;7.238;2023-04-30T04:57:45;99107.25;;;9.76;100.00
16431;BME280;8325;49.284;7.238;2023-04-30T05:01:56;99115.09;;;9.84;100.00
16431;BME280;8325;49.284;7.238;2023-04-30T05:06:08;99120.13;;;9.78;100.00
16431;BME280;8325;49.284;7.238;2023-04-30T05:10:20;99110.56;;;9.86;100.00
16431;BME280;8325;49.284;7.238;2023-04-30T05:14:32;99116.16;;;9.91;100.00
16431;BME280;8325;49.284;7.238;2023-04-30T05:18:43;99120.75;;;9.98;100.00
16431;BME280;8325;49.284;7.238;2023-04-30T05:22:55;99122.38;;;9.99;100.00
16431;BME280;8325;49.284;7.238;2023-04-30T05:27:07;99109.00;;;10.02;100.00
16431;BME280;8325;49.284;7.238;2023-04-30T05:31:18;99112.31;;;10.12;100.00
16431;BME280;8325;49.284;7.238;2023-04-30T05:35:51;99111.84;;;10.17;100.00
16431;BME280;8325;49.284;7.238;2023-04-30T05:40:03;99111.03;;;10.24;100.00
16431;BME280;8325;49.284;7.238;2023-04-30T05:44:16;99113.22;;;10.29;100.00
16431;BME280;8325;49.284;7.238;2023-04-30T05:48:28;99109.00;;;10.36;100.00
16431;BME280;8325;49.284;7.238;2023-04-30T05:52:39;99112.81;;;10.74;100.00
16431;BME280;8325;49.284;7.238;2023-04-30T05:56:51;99118.06;;;10.82;98.47
16431;BME280;8325;49.284;7.238;2023-04-30T06:01:04;99106.66;;;11.00;97.29
16431;BME280;8325;49.284;7.238;2023-04-30T06:05:15;99109.91;;;11.26;95.10
16431;BME280;8325;49.284;7.238;2023-04-30T06:09:27;99115.28;;;11.49;93.57
16431;BME280;8325;49.284;7.238;2023-04-30T06:13:39;99106.38;;;11.91;90.91
16431;BME280;8325;49.284;7.238;2023-04-30T06:17:50;99087.56;;;14.89;77.39
16431;BME280;8325;49.284;7.238;2023-04-30T06:22:02;99094.91;;;14.93;72.63
16431;BME280;8325;49.284;7.238;2023-04-30T06:26:14;99100.16;;;14.21;76.74
16431;BME280;8325;49.284;7.238;2023-04-30T06:30:25;99093.94;;;14.07;77.34
16431;BME280;8325;49.284;7.238;2023-04-30T06:34:37;99096.22;;;13.80;78.99
16431;BME280;8325;49.284;7.238;2023-04-30T06:38:49;99090.75;;;14.12;76.35
16431;BME280;8325;49.284;7.238;2023-04-30T06:43:00;99106.06;;;13.49;78.77
16431;BME280;8325;49.284;7.238;2023-04-30T06:47:12;99108.72;;;13.26;80.58
16431;BME280;8325;49.284;7.238;2023-04-30T06:51:23;99099.19;;;13.63;78.82
16431;BME280;8325;49.284;7.238;2023-04-30T06:55:35;99107.09;;;13.92;76.63
16431;BME280;8325;49.284;7.238;2023-04-30T06:59:47;99101.47;;;14.61;74.87
16431;BME280;8325;49.284;7.238;2023-04-30T07:03:58;99099.91;;;14.67;73.66
16431;BME280;8325;49.284;7.238;2023-04-30T07:08:11;99096.16;;;14.98;72.23
16431;BME280;8325;49.284;7.238;2023-04-30T07:12:23;99097.63;;;15.28;69.93
16431;BME280;8325;49.284;7.238;2023-04-30T07:16:35;99101.69;;;15.31;70.77
16431;BME280;8325;49.284;7.238;2023-04-30T07:20:46;99092.94;;;15.52;68.37
16431;BME280;8325;49.284;7.238;2023-04-30T07:24:58;99092.94;;;15.52;68.17
16431;BME280;8325;49.284;7.238;2023-04-30T07:29:11;99094.38;;;15.05;69.54
16431;BME280;8325;49.284;7.238;2023-04-30T07:33:22;99086.75;;;14.88;70.91
16431;BME280;8325;49.284;7.238;2023-04-30T07:37:34;99096.97;;;14.98;71.03
16431;BME280;8325;49.284;7.238;2023-04-30T07:41:46;99097.94;;;14.39;72.43
16431;BME280;8325;49.284;7.238;2023-04-30T07:45:58;99106.50;;;14.12;73.63
16431;BME280;8325;49.284;7.238;2023-04-30T07:50:10;99099.69;;;14.32;72.69
16431;BME280;8325;49.284;7.238;2023-04-30T07:54:22;99110.97;;;14.62;72.59
16431;BME280;8325;49.284;7.238;2023-04-30T07:58:34;99098.06;;;14.31;72.84
16431;BME280;8325;49.284;7.238;2023-04-30T08:02:45;99105.56;;;14.34;73.14
16431;BME280;8325;49.284;7.238;2023-04-30T08:06:59;99115.94;;;14.21;71.31
16431;BME280;8325;49.284;7.238;2023-04-30T08:11:12;99110.25;;;13.88;71.24
16431;BME280;8325;49.284;7.238;2023-04-30T08:15:23;99115.03;;;14.14;71.16
16431;BME280;8325;49.284;7.238;2023-04-30T08:19:35;99113.63;;;14.47;70.29
16431;BME280;8325;49.284;7.238;2023-04-30T08:23:47;99109.22;;;14.69;68.38
16431;BME280;8325;49.284;7.238;2023-04-30T08:27:58;99120.66;;;14.62;66.59
16431;BME280;8325;49.284;7.238;2023-04-30T08:32:10;99109.72;;;14.43;66.06
16431;BME280;8325;49.284;7.238;2023-04-30T08:36:22;99113.91;;;14.53;64.18
16431;BME280;8325;49.284;7.238;2023-04-30T08:40:35;99111.59;;;14.64;64.46
16431;BME280;8325;49.284;7.238;2023-04-30T08:45:02;99113.78;;;14.61;63.76
16431;BME280;8325;49.284;7.238;2023-04-30T08:49:14;99112.06;;;14.53;64.88
16431;BME280;8325;49.284;7.238;2023-04-30T08:53:26;99105.47;;;14.57;65.86
16431;BME280;8325;49.284;7.238;2023-04-30T08:57:37;99112.28;;;14.52;65.44
16431;BME280;8325;49.284;7.238;2023-04-30T09:01:49;99118.09;;;14.32;65.17
16431;BME280;8325;49.284;7.238;2023-04-30T09:06:04;99121.19;;;14.21;65.08
16431;BME280;8325;49.284;7.238;2023-04-30T09:10:20;99118.94;;;14.03;65.35
16431;BME280;8325;49.284;7.238;2023-04-30T09:14:33;99116.44;;;14.31;66.27
16431;BME280;8325;49.284;7.238;2023-04-30T09:18:50;99114.91;;;14.37;65.52
16431;BME280;8325;49.284;7.238;2023-04-30T09:23:07;99123.94;;;14.49;66.00
16431;BME280;8325;49.284;7.238;2023-04-30T09:27:22;99109.97;;;14.48;65.07
16431;BME280;8325;49.284;7.238;2023-04-30T09:31:38;99122.81;;;14.73;64.51
16431;BME280;8325;49.284;7.238;2023-04-30T09:35:50;99109.72;;;14.43;63.27
16431;BME280;8325;49.284;7.238;2023-04-30T09:40:02;99118.56;;;14.72;63.98
16431;BME280;8325;49.284;7.238;2023-04-30T09:44:28;99115.41;;;14.62;63.95
16431;BME280;8325;49.284;7.238;2023-04-30T09:48:40;99122.13;;;14.64;64.84
16431;BME280;8325;49.284;7.238;2023-04-30T09:52:52;99114.69;;;14.53;62.86
16431;BME280;8325;49.284;7.238;2023-04-30T09:57:04;99115.69;;;14.67;63.84
16431;BME280;8325;49.284;7.238;2023-04-30T10:01:16;99113.16;;;14.80;63.08
16431;BME280;8325;49.284;7.238;2023-04-30T10:05:28;99111.34;;;14.81;62.83
16431;BME280;8325;49.284;7.238;2023-04-30T10:09:49;99115.56;;;14.96;61.67
16431;BME280;8325;49.284;7.238;2023-04-30T10:14:11;99102.69;;;15.08;60.81
16431;BME280;8325;49.284;7.238;2023-04-30T10:18:53;99099.56;;;15.19;58.36
16431;BME280;8325;49.284;7.238;2023-04-30T10:23:06;99096.22;;;15.32;56.92
16431;BME280;8325;49.284;7.238;2023-04-30T10:27:18;99085.56;;;15.40;55.84
16431;BME280;8325;49.284;7.238;2023-04-30T10:31:30;99085.19;;;15.43;56.04
16431;BME280;8325;49.284;7.238;2023-04-30T10:35:57;99079.22;;;15.07;56.64
16431;BME280;8325;49.284;7.238;2023-04-30T10:40:10;99079.72;;;15.17;56.50
16431;BME280;8325;49.284;7.238;2023-04-30T10:44:24;99076.19;;;15.31;57.22
16431;BME280;8325;49.284;7.238;2023-04-30T10:48:35;99081.53;;;15.16;57.78
16431;BME280;8325;49.284;7.238;2023-04-30T10:53:00;99073.56;;;15.31;57.74
16431;BME280;8325;49.284;7.238;2023-04-30T10:57:15;99075.41;;;15.37;56.09
16431;BME280;8325;49.284;7.238;2023-04-30T11:01:28;99063.09;;;15.73;56.98
16431;BME280;8325;49.284;7.238;2023-04-30T11:05:40;99051.38;;;15.75;55.63
16431;BME280;8325;49.284;7.238;2023-04-30T11:09:55;99044.38;;;15.96;55.06
16431;BME280;8325;49.284;7.238;2023-04-30T11:14:15;99034.09;;;16.14;56.33
16431;BME280;8325;49.284;7.238;2023-04-30T11:18:30;99026.28;;;16.54;55.48
16431;BME280;8325;49.284;7.238;2023-04-30T11:22:43;99027.88;;;16.35;53.60
16431;BME280;8325;49.284;7.238;2023-04-30T11:27:04;99031.25;;;16.09;54.41
16431;BME280;8325;49.284;7.238;2023-04-30T11:31:16;99025.53;;;15.99;54.82
16431;BME280;8325;49.284;7.238;2023-04-30T11:35:28;99030.91;;;15.77;54.52
16431;BME280;8325;49.284;7.238;2023-04-30T11:39:41;99032.53;;;15.78;55.49
16431;BME280;8325;49.284;7.238;2023-04-30T11:43:53;99025.97;;;16.02;55.40
16431;BME280;8325;49.284;7.238;2023-04-30T11:48:04;99022.94;;;16.05;54.68
16431;BME280;8325;49.284;7.238;2023-04-30T11:52:20;99018.28;;;16.14;54.79
16431;BME280;8325;49.284;7.238;2023-04-30T11:56:32;99029.63;;;16.08;52.46
16431;BME280;8325;49.284;7.238;2023-04-30T12:00:51;99018.22;;;15.94;52.59
16431;BME280;8325;49.284;7.238;2023-04-30T12:05:03;99024.16;;;16.09;52.48
16431;BME280;8325;49.284;7.238;2023-04-30T12:09:15;99015.41;;;16.02;52.85
16431;BME280;8325;49.284;7.238;2023-04-30T12:13:26;99012.06;;;16.35;52.47
16431;BME280;8325;49.284;7.238;2023-04-30T12:17:38;99009.84;;;16.58;50.91
16431;BME280;8325;49.284;7.238;2023-04-30T12:21:50;99007.84;;;16.54;50.79
16431;BME280;8325;49.284;7.238;2023-04-30T12:26:01;99005.78;;;16.43;52.00
16431;BME280;8325;49.284;7.238;2023-04-30T12:30:14;99002.97;;;16.64;54.85
16431;BME280;8325;49.284;7.238;2023-04-30T12:34:25;99000.56;;;16.76;50.73
16431;BME280;8325;49.284;7.238;2023-04-30T12:38:41;99000.16;;;16.99;50.33
16431;BME280;8325;49.284;7.238;2023-04-30T12:43:03;98999.31;;;17.12;50.43
16431;BME280;8325;49.284;7.238;2023-04-30T12:47:15;98988.56;;;17.20;49.15
16431;BME280;8325;49.284;7.238;2023-04-30T12:51:27;98993.66;;;17.08;49.14
16431;BME280;8325;49.284;7.238;2023-04-30T12:55:39;99001.38;;;17.03;48.74
16431;BME280;8325;49.284;7.238;2023-04-30T13:04:02;99000.16;;;16.66;50.92
16431;BME280;8325;49.284;7.238;2023-04-30T13:08:14;99007.84;;;16.67;50.97
16431;BME280;8325;49.284;7.238;2023-04-30T13:12:26;98989.97;;;16.43;51.89
16431;BME280;8325;49.284;7.238;2023-04-30T13:16:37;99003.53;;;16.26;53.32
16431;BME280;8325;49.284;7.238;2023-04-30T13:20:50;99000.28;;;16.38;53.24
16431;BME280;8325;49.284;7.238;2023-04-30T13:25:03;98985.50;;;16.37;53.10
16431;BME280;8325;49.284;7.238;2023-04-30T13:29:14;98975.34;;;16.27;53.49
16431;BME280;8325;49.284;7.238;2023-04-30T13:33:26;98979.44;;;16.69;51.20
16431;BME280;8325;49.284;7.238;2023-04-30T13:37:37;98969.50;;;16.98;51.44
16431;BME280;8325;49.284;7.238;2023-04-30T13:41:49;98956.06;;;17.26;50.38
16431;BME280;8325;49.284;7.238;2023-04-30T13:46:01;98954.16;;;17.53;49.51
16431;BME280;8325;49.284;7.238;2023-04-30T13:50:12;98952.41;;;17.34;47.27
16431;BME280;8325;49.284;7.238;2023-04-30T13:54:24;98946.13;;;17.15;47.99
16431;BME280;8325;49.284;7.238;2023-04-30T13:58:35;98946.91;;;17.35;47.39
16431;BME280;8325;49.284;7.238;2023-04-30T14:02:47;98926.88;;;17.66;46.60
16431;BME280;8325;49.284;7.238;2023-04-30T14:06:59;98919.97;;;18.03;46.64
16431;BME280;8325;49.284;7.238;2023-04-30T14:11:11;98940.56;;;18.01;45.83
16431;BME280;8325;49.284;7.238;2023-04-30T14:15:23;98936.59;;;17.72;45.77
16431;BME280;8325;49.284;7.238;2023-04-30T14:19:35;98923.00;;;17.10;47.16
16431;BME280;8325;49.284;7.238;2023-04-30T14:23:47;98921.81;;;17.06;47.42
16431;BME280;8325;49.284;7.238;2023-04-30T14:27:58;98923.63;;;16.99;46.78
16431;BME280;8325;49.284;7.238;2023-04-30T14:32:12;98919.38;;;16.98;47.26
16431;BME280;8325;49.284;7.238;2023-04-30T14:36:24;98914.84;;;17.25;48.35
16431;BME280;8325;49.284;7.238;2023-04-30T14:40:37;98909.72;;;17.37;47.80
16431;BME280;8325;49.284;7.238;2023-04-30T14:44:49;98909.66;;;17.50;47.13
16431;BME280;8325;49.284;7.238;2023-04-30T14:49:00;98912.38;;;17.37;47.28
16431;BME280;8325;49.284;7.238;2023-04-30T14:53:12;98901.81;;;17.37;46.84
16431;BME280;8325;49.284;7.238;2023-04-30T14:57:24;98902.44;;;17.25;47.19
16431;BME280;8325;49.284;7.238;2023-04-30T15:01:36;98895.41;;;17.13;48.43
16431;BME280;8325;49.284;7.238;2023-04-30T15:05:47;98902.31;;;17.07;48.28
16431;BME280;8325;49.284;7.238;2023-04-30T15:10:00;98910.19;;;17.20;48.22
16431;BME280;8325;49.284;7.238;2023-04-30T15:14:11;98881.38;;;17.12;47.26
16431;BME280;8325;49.284;7.238;2023-04-30T15:18:23;98883.44;;;17.03;47.60
16431;BME280;8325;49.284;7.238;2023-04-30T15:22:35;98886.88;;;17.04;48.43
16431;BME280;8325;49.284;7.238;2023-04-30T15:26:46;98880.97;;;17.09;47.64
16431;BME280;8325;49.284;7.238;2023-04-30T15:30:58;98877.09;;;17.18;48.25
16431;BME280;8325;49.284;7.238;2023-04-30T15:35:10;98866.13;;;17.14;48.27
16431;BME280;8325;49.284;7.238;2023-04-30T15:39:22;98863.31;;;17.16;47.58
16431;BME280;8325;49.284;7.238;2023-04-30T15:43:33;98856.59;;;17.13;47.24
16431;BME280;8325;49.284;7.238;2023-04-30T15:47:45;98865.31;;;17.20;48.02
16431;BME280;8325;49.284;7.238;2023-04-30T15:51:57;98858.75;;;17.30;48.38
16431;BME280;8325;49.284;7.238;2023-04-30T15:56:08;98848.47;;;17.21;47.62
16431;BME280;8325;49.284;7.238;2023-04-30T16:00:21;98852.75;;;17.16;47.43
16431;BME280;8325;49.284;7.238;2023-04-30T16:04:34;98850.72;;;17.11;46.87
16431;BME280;8325;49.284;7.238;2023-04-30T16:08:45;98848.28;;;17.16;48.20
16431;BME280;8325;49.284;7.238;2023-04-30T16:12:57;98840.81;;;17.07;47.76
16431;BME280;8325;49.284;7.238;2023-04-30T16:17:08;98845.69;;;17.03;47.17
16431;BME280;8325;49.284;7.238;2023-04-30T16:21:20;98833.28;;;17.10;48.50
16431;BME280;8325;49.284;7.238;2023-04-30T16:25:32;98829.56;;;17.24;48.11
16431;BME280;8325;49.284;7.238;2023-04-30T16:29:43;98830.56;;;17.23;47.40
16431;BME280;8325;49.284;7.238;2023-04-30T16:33:55;98831.53;;;17.36;47.28
16431;BME280;8325;49.284;7.238;2023-04-30T16:38:07;98830.72;;;17.35;47.17
16431;BME280;8325;49.284;7.238;2023-04-30T16:42:18;98833.06;;;17.18;46.22
16431;BME280;8325;49.284;7.238;2023-04-30T16:46:30;98818.47;;;17.09;47.03
16431;BME280;8325;49.284;7.238;2023-04-30T16:50:42;98814.06;;;16.90;47.84
16431;BME280;8325;49.284;7.238;2023-04-30T16:54:54;98814.28;;;16.88;47.27
16431;BME280;8325;49.284;7.238;2023-04-30T16:59:05;98811.66;;;16.82;47.89
16431;BME280;8325;49.284;7.238;2023-04-30T17:03:17;98812.25;;;16.70;49.07
16431;BME280;8325;49.284;7.238;2023-04-30T17:07:29;98816.13;;;16.68;49.34
16431;BME280;8325;49.284;7.238;2023-04-30T17:11:40;98819.56;;;16.62;49.77
16431;BME280;8325;49.284;7.238;2023-04-30T17:15:52;98815.94;;;16.49;49.32
16431;BME280;8325;49.284;7.238;2023-04-30T17:20:12;98811.47;;;16.50;49.92
16431;BME280;8325;49.284;7.238;2023-04-30T17:24:23;98811.88;;;16.47;51.15
16431;BME280;8325;49.284;7.238;2023-04-30T17:28:35;98816.78;;;16.43;50.63
16431;BME280;8325;49.284;7.238;2023-04-30T17:32:47;98817.41;;;16.39;52.29
16431;BME280;8325;49.284;7.238;2023-04-30T17:36:59;98818.00;;;16.34;52.66
16431;BME280;8325;49.284;7.238;2023-04-30T17:41:10;98820.25;;;16.24;53.97
16431;BME280;8325;49.284;7.238;2023-04-30T17:45:22;98831.19;;;16.14;53.25
16431;BME280;8325;49.284;7.238;2023-04-30T17:49:34;98827.31;;;16.03;51.56
16431;BME280;8325;49.284;7.238;2023-04-30T17:53:46;98833.81;;;15.87;51.93
16431;BME280;8325;49.284;7.238;2023-04-30T17:57:57;98831.78;;;15.90;53.67
16431;BME280;8325;49.284;7.238;2023-04-30T18:02:09;98831.34;;;15.79;54.88
16431;BME280;8325;49.284;7.238;2023-04-30T18:06:21;98833.94;;;15.66;55.92
16431;BME280;8325;49.284;7.238;2023-04-30T18:10:32;98838.38;;;15.52;58.05
16431;BME280;8325;49.284;7.238;2023-04-30T18:14:44;98837.31;;;15.33;57.34
16431;BME280;8325;49.284;7.238;2023-04-30T18:18:56;98834.41;;;15.15;60.19
16431;BME280;8325;49.284;7.238;2023-04-30T18:23:08;98831.50;;;14.96;61.57
16431;BME280;8325;49.284;7.238;2023-04-30T18:27:20;98828.34;;;14.73;63.02
16431;BME280;8325;49.284;7.238;2023-04-30T18:31:31;98841.88;;;14.70;62.25
16431;BME280;8325;49.284;7.238;2023-04-30T18:35:43;98836.78;;;14.40;62.89
16431;BME280;8325;49.284;7.238;2023-04-30T18:40:00;98830.66;;;14.33;64.77
16431;BME280;8325;49.284;7.238;2023-04-30T18:44:12;98834.19;;;14.19;65.19
16431;BME280;8325;49.284;7.238;2023-04-30T18:48:24;98836.09;;;14.03;69.36
16431;BME280;8325;49.284;7.238;2023-04-30T18:52:35;98837.16;;;13.88;69.22
16431;BME280;8325;49.284;7.238;2023-04-30T18:56:47;98833.78;;;13.72;72.31
16431;BME280;8325;49.284;7.238;2023-04-30T19:00:59;98838.97;;;13.66;71.26
16431;BME280;8325;49.284;7.238;2023-04-30T19:05:10;98835.94;;;13.47;71.79
16431;BME280;8325;49.284;7.238;2023-04-30T19:09:22;98841.06;;;13.34;72.95
16431;BME280;8325;49.284;7.238;2023-04-30T19:13:33;98837.25;;;13.22;74.46
16431;BME280;8325;49.284;7.238;2023-04-30T19:17:45;98842.88;;;13.19;75.12
16431;BME280;8325;49.284;7.238;2023-04-30T19:21:57;98842.06;;;13.03;75.04
16431;BME280;8325;49.284;7.238;2023-04-30T19:26:08;98846.22;;;12.98;74.03
16431;BME280;8325;49.284;7.238;2023-04-30T19:30:20;98843.06;;;12.87;75.66
16431;BME280;8325;49.284;7.238;2023-04-30T19:34:32;98843.50;;;12.76;77.24
16431;BME280;8325;49.284;7.238;2023-04-30T19:38:43;98845.41;;;12.67;77.61
16431;BME280;8325;49.284;7.238;2023-04-30T19:42:55;98852.00;;;12.63;77.85
16431;BME280;8325;49.284;7.238;2023-04-30T19:47:06;98854.69;;;12.55;79.26
16431;BME280;8325;49.284;7.238;2023-04-30T19:51:18;98856.78;;;12.45;80.54
16431;BME280;8325;49.284;7.238;2023-04-30T19:55:30;98853.59;;;12.35;81.61
16431;BME280;8325;49.284;7.238;2023-04-30T19:59:42;98846.97;;;12.24;81.76
16431;BME280;8325;49.284;7.238;2023-04-30T20:03:53;98844.25;;;12.17;80.94
16431;BME280;8325;49.284;7.238;2023-04-30T20:08:06;98839.72;;;12.11;82.19
16431;BME280;8325;49.284;7.238;2023-04-30T20:12:18;98843.03;;;12.05;82.49
16431;BME280;8325;49.284;7.238;2023-04-30T20:16:30;98852.94;;;11.95;81.83
16431;BME280;8325;49.284;7.238;2023-04-30T20:20:42;98843.66;;;11.84;83.33
16431;BME280;8325;49.284;7.238;2023-04-30T20:24:54;98850.13;;;11.73;83.96
16431;BME280;8325;49.284;7.238;2023-04-30T20:29:07;98849.69;;;11.62;84.75
16431;BME280;8325;49.284;7.238;2023-04-30T20:33:18;98849.13;;;11.51;84.92
16431;BME280;8325;49.284;7.238;2023-04-30T20:37:30;98834.59;;;11.49;85.05
16431;BME280;8325;49.284;7.238;2023-04-30T20:41:43;98842.47;;;11.41;85.60
16431;BME280;8325;49.284;7.238;2023-04-30T20:45:59;98836.47;;;11.32;86.05
16431;BME280;8325;49.284;7.238;2023-04-30T20:50:10;98832.09;;;11.24;86.09
16431;BME280;8325;49.284;7.238;2023-04-30T20:54:22;98821.66;;;11.16;87.08
16431;BME280;8325;49.284;7.238;2023-04-30T20:58:34;98826.31;;;11.06;87.89
16431;BME280;8325;49.284;7.238;2023-04-30T21:02:45;98826.31;;;10.98;88.67
16431;BME280;8325;49.284;7.238;2023-04-30T21:06:57;98817.81;;;10.96;89.09
16431;BME280;8325;49.284;7.238;2023-04-30T21:11:09;98820.97;;;10.91;89.71
16431;BME280;8325;49.284;7.238;2023-04-30T21:15:21;98815.59;;;10.85;89.83
16431;BME280;8325;49.284;7.238;2023-04-30T21:19:33;98814.63;;;10.77;90.34
16431;BME280;8325;49.284;7.238;2023-04-30T21:23:44;98816.63;;;10.75;90.79
16431;BME280;8325;49.284;7.238;2023-04-30T21:27:58;98810.41;;;10.68;90.72
